createdAt,value
2018-05-26T00:00:22.146Z,20.42
2018-05-26T00:01:21.971Z,20.42
2018-05-26T00:02:22.135Z,20.42
2018-05-26T00:03:22.204Z,20.41
2018-05-26T00:04:22.267Z,20.42
2018-05-26T00:05:21.967Z,20.41
2018-05-26T00:06:22.006Z,20.41
2018-05-26T00:07:22.088Z,20.42
2018-05-26T00:08:21.951Z,20.42
2018-05-26T00:09:22.005Z,20.41
2018-05-26T00:10:22.077Z,20.42
2018-05-26T00:11:22.219Z,20.41
2018-05-26T00:12:22.035Z,20.41
2018-05-26T00:13:21.891Z,20.41
2018-05-26T00:14:22.166Z,20.41
2018-05-26T00:15:22.152Z,20.41
2018-05-26T00:16:22.126Z,20.42
2018-05-26T00:17:22.071Z,20.4
2018-05-26T00:18:22.169Z,20.41
2018-05-26T00:19:22.032Z,20.41
2018-05-26T00:20:21.948Z,20.4
2018-05-26T00:21:22.076Z,20.4
2018-05-26T00:22:21.893Z,20.41
2018-05-26T00:23:22.132Z,20.4
2018-05-26T00:24:22.230Z,20.41
2018-05-26T00:25:22.085Z,20.4
2018-05-26T00:26:21.936Z,20.4
2018-05-26T00:27:22.056Z,20.41
2018-05-26T00:28:22.147Z,20.41
2018-05-26T00:29:22.309Z,20.39
2018-05-26T00:30:22.022Z,20.4
2018-05-26T00:31:21.879Z,20.41
2018-05-26T00:32:22.038Z,20.4
2018-05-26T00:33:22.121Z,20.41
2018-05-26T00:34:22.221Z,20.4
2018-05-26T00:35:22.130Z,20.39
2018-05-26T00:36:21.900Z,20.39
2018-05-26T00:37:22.111Z,20.4
2018-05-26T00:38:22.141Z,20.39
2018-05-26T00:39:22.170Z,20.4
2018-05-26T00:40:22.216Z,20.4
2018-05-26T00:41:22.188Z,20.39
2018-05-26T00:42:22.066Z,20.4
2018-05-26T00:43:22.068Z,20.4
2018-05-26T00:44:22.228Z,20.39
2018-05-26T00:45:22.032Z,20.39
2018-05-26T00:46:22.039Z,20.4
2018-05-26T00:47:22.148Z,20.39
2018-05-26T00:48:22.155Z,20.39
2018-05-26T00:49:21.858Z,20.39
2018-05-26T00:50:22.115Z,20.39
2018-05-26T00:51:22.336Z,20.39
2018-05-26T00:52:22.035Z,20.38
2018-05-26T00:53:21.959Z,20.39
2018-05-26T00:54:22.137Z,20.39
2018-05-26T00:55:22.129Z,20.39
2018-05-26T00:56:21.978Z,20.38
2018-05-26T00:57:22.349Z,20.38
2018-05-26T00:58:21.986Z,20.39
2018-05-26T00:59:22.110Z,20.38
2018-05-26T01:00:22.050Z,20.38
2018-05-26T01:01:21.965Z,20.38
2018-05-26T01:02:22.138Z,20.37
2018-05-26T01:03:22.106Z,20.38
2018-05-26T01:04:22.039Z,20.38
2018-05-26T01:05:22.065Z,20.38
2018-05-26T01:06:22.081Z,20.38
2018-05-26T01:07:21.973Z,20.38
2018-05-26T01:08:22.028Z,20.37
2018-05-26T01:09:22.087Z,20.38
2018-05-26T01:10:22.127Z,20.38
2018-05-26T01:11:21.999Z,20.37
2018-05-26T01:12:22.010Z,20.38
2018-05-26T01:13:22.116Z,20.38
2018-05-26T01:14:22.055Z,20.37
2018-05-26T01:15:21.977Z,20.37
2018-05-26T01:16:21.926Z,20.37
2018-05-26T01:17:22.083Z,20.36
2018-05-26T01:18:22.152Z,20.37
2018-05-26T01:19:22.053Z,20.37
2018-05-26T01:20:22.137Z,20.37
2018-05-26T01:21:22.142Z,20.37
2018-05-26T01:22:22.127Z,20.37
2018-05-26T01:23:21.969Z,20.37
2018-05-26T01:24:22.040Z,20.37
2018-05-26T01:25:22.153Z,20.37
2018-05-26T01:26:22.092Z,20.37
2018-05-26T01:27:22.015Z,20.37
2018-05-26T01:28:21.950Z,20.38
2018-05-26T01:29:22.023Z,20.37
2018-05-26T01:30:21.968Z,20.36
2018-05-26T01:31:22.029Z,20.37
2018-05-26T01:32:22.176Z,20.35
2018-05-26T01:33:22.047Z,20.37
2018-05-26T01:34:21.976Z,20.36
2018-05-26T01:35:22.161Z,20.36
2018-05-26T01:36:22.043Z,20.37
2018-05-26T01:37:22.004Z,20.36
2018-05-26T01:38:22.021Z,20.36
2018-05-26T01:39:21.924Z,20.36
2018-05-26T01:40:22.006Z,20.37
2018-05-26T01:41:22.001Z,20.36
2018-05-26T01:42:22.133Z,20.36
2018-05-26T01:43:22.046Z,20.36
2018-05-26T01:44:21.944Z,20.35
2018-05-26T01:45:22.119Z,20.36
2018-05-26T01:46:21.911Z,20.36
2018-05-26T01:47:22.080Z,20.35
2018-05-26T01:48:21.960Z,20.36
2018-05-26T01:49:22.035Z,20.36
2018-05-26T01:50:22.349Z,20.36
2018-05-26T01:51:22.114Z,20.36
2018-05-26T01:52:21.947Z,20.36
2018-05-26T01:53:22.099Z,20.35
2018-05-26T01:54:21.990Z,20.36
2018-05-26T01:55:21.978Z,20.36
2018-05-26T01:56:22.166Z,20.35
2018-05-26T01:57:21.832Z,20.36
2018-05-26T01:58:21.892Z,20.35
2018-05-26T01:59:22.124Z,20.35
2018-05-26T02:00:22.108Z,20.35
2018-05-26T02:01:22.232Z,20.35
2018-05-26T02:02:22.287Z,20.34
2018-05-26T02:03:21.949Z,20.35
2018-05-26T02:04:21.982Z,20.35
2018-05-26T02:05:22.040Z,20.34
2018-05-26T02:06:22.063Z,20.35
2018-05-26T02:07:22.038Z,20.36
2018-05-26T02:08:21.977Z,20.35
2018-05-26T02:09:22.026Z,20.34
2018-05-26T02:10:22.170Z,20.35
2018-05-26T02:11:22.109Z,20.35
2018-05-26T02:12:22.122Z,20.35
2018-05-26T02:13:21.931Z,20.35
2018-05-26T02:14:22.102Z,20.34
2018-05-26T02:15:22.217Z,20.35
2018-05-26T02:16:21.966Z,20.35
2018-05-26T02:17:22.070Z,20.34
2018-05-26T02:18:22.079Z,20.35
2018-05-26T02:19:22.039Z,20.35
2018-05-26T02:20:22.079Z,20.33
2018-05-26T02:21:22.090Z,20.34
2018-05-26T02:22:21.970Z,20.35
2018-05-26T02:23:21.997Z,20.34
2018-05-26T02:24:21.997Z,20.34
2018-05-26T02:25:22.097Z,20.34
2018-05-26T02:26:22.058Z,20.34
2018-05-26T02:27:21.938Z,20.34
2018-05-26T02:28:22.015Z,20.35
2018-05-26T02:29:22.035Z,20.34
2018-05-26T02:30:22.094Z,20.34
2018-05-26T02:31:43.935Z,20.34
2018-05-26T02:32:21.967Z,20.34
2018-05-26T02:33:22.060Z,20.34
2018-05-26T02:34:21.929Z,20.34
2018-05-26T02:35:22.164Z,20.33
2018-05-26T02:36:31.928Z,20.34
2018-05-26T02:37:21.970Z,20.34
2018-05-26T02:38:21.971Z,20.34
2018-05-26T02:39:22.265Z,20.34
2018-05-26T02:40:22.083Z,20.35
2018-05-26T02:41:22.010Z,20.33
2018-05-26T02:42:22.135Z,20.33
2018-05-26T02:43:22.174Z,20.34
2018-05-26T02:44:21.977Z,20.34
2018-05-26T02:45:22.088Z,20.34
2018-05-26T02:46:22.099Z,20.34
2018-05-26T02:47:22.144Z,20.33
2018-05-26T02:48:21.845Z,20.34
2018-05-26T02:49:22.026Z,20.34
2018-05-26T02:50:21.999Z,20.33
2018-05-26T02:51:22.202Z,20.34
2018-05-26T02:52:21.919Z,20.34
2018-05-26T02:53:22.132Z,20.32
2018-05-26T02:54:22.046Z,20.33
2018-05-26T02:55:22.079Z,20.34
2018-05-26T02:56:22.039Z,20.33
2018-05-26T02:57:21.888Z,20.33
2018-05-26T02:58:21.979Z,20.34
2018-05-26T02:59:22.181Z,20.33
2018-05-26T03:00:22.068Z,20.32
2018-05-26T03:01:22.058Z,20.33
2018-05-26T03:02:22.141Z,20.33
2018-05-26T03:03:22.055Z,20.34
2018-05-26T03:04:21.939Z,20.34
2018-05-26T03:05:22.153Z,20.33
2018-05-26T03:06:22.184Z,20.33
2018-05-26T03:07:22.101Z,20.33
2018-05-26T03:08:21.888Z,20.33
2018-05-26T03:09:22.059Z,20.33
2018-05-26T03:10:21.952Z,20.33
2018-05-26T03:11:21.959Z,20.33
2018-05-26T03:12:22.167Z,20.33
2018-05-26T03:13:21.855Z,20.33
2018-05-26T03:14:21.956Z,20.32
2018-05-26T03:15:22.174Z,20.33
2018-05-26T03:16:22.068Z,20.33
2018-05-26T03:17:22.071Z,20.32
2018-05-26T03:18:21.951Z,20.33
2018-05-26T03:19:22.324Z,20.33
2018-05-26T03:20:21.942Z,20.32
2018-05-26T03:21:22.191Z,20.32
2018-05-26T03:22:22.014Z,20.33
2018-05-26T03:23:21.972Z,20.32
2018-05-26T03:24:21.923Z,20.32
2018-05-26T03:25:21.916Z,20.34
2018-05-26T03:26:21.988Z,20.31
2018-05-26T03:27:22.020Z,20.33
2018-05-26T03:28:22.123Z,20.33
2018-05-26T03:29:21.971Z,20.32
2018-05-26T03:30:22.181Z,20.33
2018-05-26T03:31:22.022Z,20.33
2018-05-26T03:32:21.908Z,20.33
2018-05-26T03:33:21.954Z,20.32
2018-05-26T03:34:22.220Z,20.33
2018-05-26T03:35:22.156Z,20.32
2018-05-26T03:36:22.013Z,20.33
2018-05-26T03:37:21.885Z,20.32
2018-05-26T03:38:22.076Z,20.32
2018-05-26T03:39:22.074Z,20.32
2018-05-26T03:40:21.912Z,20.33
2018-05-26T03:41:22.118Z,20.31
2018-05-26T03:42:21.971Z,20.31
2018-05-26T03:43:22.257Z,20.31
2018-05-26T03:44:21.912Z,20.31
2018-05-26T03:45:22.034Z,20.32
2018-05-26T03:46:21.941Z,20.32
2018-05-26T03:47:21.831Z,20.31
2018-05-26T03:48:22.090Z,20.32
2018-05-26T03:49:22.038Z,20.32
2018-05-26T03:50:22.035Z,20.31
2018-05-26T03:51:22.119Z,20.31
2018-05-26T03:52:22.135Z,20.31
2018-05-26T03:53:21.953Z,20.3
2018-05-26T03:54:21.950Z,20.31
2018-05-26T03:55:21.907Z,20.31
2018-05-26T03:56:21.925Z,20.3
2018-05-26T03:57:22.041Z,20.31
2018-05-26T03:58:22.058Z,20.32
2018-05-26T03:59:21.938Z,20.31
2018-05-26T04:00:22.037Z,20.32
2018-05-26T04:01:22.113Z,20.31
2018-05-26T04:02:21.946Z,20.31
2018-05-26T04:03:21.967Z,20.32
2018-05-26T04:04:21.860Z,20.31
2018-05-26T04:05:21.997Z,20.31
2018-05-26T04:06:22.116Z,20.31
2018-05-26T04:07:22.030Z,20.31
2018-05-26T04:08:22.106Z,20.3
2018-05-26T04:09:22.049Z,20.31
2018-05-26T04:10:22.083Z,20.31
2018-05-26T04:11:21.986Z,20.3
2018-05-26T04:12:22.085Z,20.31
2018-05-26T04:13:21.893Z,20.31
2018-05-26T04:14:21.941Z,20.3
2018-05-26T04:15:21.959Z,20.31
2018-05-26T04:16:22.154Z,20.31
2018-05-26T04:17:21.985Z,20.3
2018-05-26T04:18:22.045Z,20.3
2018-05-26T04:19:22.200Z,20.31
2018-05-26T04:20:22.069Z,20.3
2018-05-26T04:21:22.079Z,20.31
2018-05-26T04:22:22.012Z,20.31
2018-05-26T04:23:22.075Z,20.3
2018-05-26T04:24:21.960Z,20.3
2018-05-26T04:25:22.255Z,20.31
2018-05-26T04:26:22.010Z,20.29
2018-05-26T04:27:22.146Z,20.3
2018-05-26T04:28:22.078Z,20.3
2018-05-26T04:29:22.088Z,20.3
2018-05-26T04:30:22.099Z,20.31
2018-05-26T04:31:21.880Z,20.31
2018-05-26T04:32:22.020Z,20.3
2018-05-26T04:33:22.083Z,20.31
2018-05-26T04:34:21.979Z,20.31
2018-05-26T04:35:21.896Z,20.3
2018-05-26T04:36:22.017Z,20.31
2018-05-26T04:37:22.025Z,20.3
2018-05-26T04:38:22.092Z,20.3
2018-05-26T04:39:22.005Z,20.3
2018-05-26T04:40:31.945Z,20.31
2018-05-26T04:41:22.006Z,20.3
2018-05-26T04:42:21.804Z,20.3
2018-05-26T04:43:21.966Z,20.31
2018-05-26T04:44:22.015Z,20.3
2018-05-26T04:45:22.066Z,20.3
2018-05-26T04:46:21.898Z,20.3
2018-05-26T04:47:21.971Z,20.3
2018-05-26T04:48:22.155Z,20.3
2018-05-26T04:49:22.095Z,20.3
2018-05-26T04:50:22.017Z,20.29
2018-05-26T04:51:21.962Z,20.3
2018-05-26T04:52:21.851Z,20.3
2018-05-26T04:53:22.032Z,20.29
2018-05-26T04:54:22.023Z,20.3
2018-05-26T04:55:22.059Z,20.31
2018-05-26T04:56:21.912Z,20.3
2018-05-26T04:57:22.024Z,20.3
2018-05-26T04:58:21.993Z,20.31
2018-05-26T04:59:22.038Z,20.3
2018-05-26T05:00:22.040Z,20.31
2018-05-26T05:01:22.017Z,20.31
2018-05-26T05:02:22.064Z,20.3
2018-05-26T05:03:21.874Z,20.31
2018-05-26T05:04:21.929Z,20.31
2018-05-26T05:05:22.077Z,20.29
2018-05-26T05:06:21.945Z,20.3
2018-05-26T05:07:22.104Z,20.31
2018-05-26T05:08:22.110Z,20.3
2018-05-26T05:09:21.977Z,20.31
2018-05-26T05:10:21.928Z,20.31
2018-05-26T05:11:22.018Z,20.3
2018-05-26T05:12:21.833Z,20.31
2018-05-26T05:13:21.999Z,20.31
2018-05-26T05:14:21.924Z,20.31
2018-05-26T05:15:22.147Z,20.3
2018-05-26T05:16:21.847Z,20.31
2018-05-26T05:17:21.995Z,20.31
2018-05-26T05:18:22.079Z,20.31
2018-05-26T05:19:22.068Z,20.31
2018-05-26T05:20:21.881Z,20.3
2018-05-26T05:21:21.901Z,20.31
2018-05-26T05:22:21.970Z,20.31
2018-05-26T05:23:22.007Z,20.31
2018-05-26T05:24:21.964Z,20.31
2018-05-26T05:25:21.951Z,20.31
2018-05-26T05:26:22.003Z,20.3
2018-05-26T05:27:21.987Z,20.32
2018-05-26T05:28:22.115Z,20.31
2018-05-26T05:29:22.010Z,20.3
2018-05-26T05:30:21.852Z,20.31
2018-05-26T05:31:22.050Z,20.33
2018-05-26T05:32:21.890Z,20.31
2018-05-26T05:33:21.976Z,20.31
2018-05-26T05:34:22.027Z,20.32
2018-05-26T05:35:22.017Z,20.3
2018-05-26T05:36:21.943Z,20.31
2018-05-26T05:37:22.108Z,20.31
2018-05-26T05:38:22.244Z,20.31
2018-05-26T05:39:21.732Z,20.31
2018-05-26T05:40:22.032Z,20.32
2018-05-26T05:41:22.011Z,20.31
2018-05-26T05:42:22.047Z,20.32
2018-05-26T05:43:21.875Z,20.32
2018-05-26T05:44:22.128Z,20.31
2018-05-26T05:45:22.429Z,20.32
2018-05-26T05:46:22.060Z,20.33
2018-05-26T05:47:21.914Z,20.31
2018-05-26T05:48:21.947Z,20.32
2018-05-26T05:49:21.987Z,20.32
2018-05-26T05:50:22.031Z,20.31
2018-05-26T05:51:21.837Z,20.32
2018-05-26T05:52:21.962Z,20.32
2018-05-26T05:53:22.095Z,20.31
2018-05-26T05:54:22.036Z,20.33
2018-05-26T05:55:22.058Z,20.33
2018-05-26T05:56:21.901Z,20.32
2018-05-26T05:57:21.788Z,20.31
2018-05-26T05:58:21.801Z,20.32
2018-05-26T05:59:22.045Z,20.31
2018-05-26T06:00:22.073Z,20.33
2018-05-26T06:01:22.044Z,20.32
2018-05-26T06:02:21.875Z,20.31
2018-05-26T06:03:22.061Z,20.33
2018-05-26T06:04:21.880Z,20.32
2018-05-26T06:05:22.014Z,20.32
2018-05-26T06:06:22.035Z,20.32
2018-05-26T06:07:21.884Z,20.33
2018-05-26T06:08:22.000Z,20.31
2018-05-26T06:09:22.245Z,20.31
2018-05-26T06:10:21.890Z,20.32
2018-05-26T06:11:21.975Z,20.31
2018-05-26T06:12:22.259Z,20.32
2018-05-26T06:13:21.912Z,20.32
2018-05-26T06:14:21.912Z,20.31
2018-05-26T06:15:21.938Z,20.31
2018-05-26T06:16:22.018Z,20.32
2018-05-26T06:17:22.131Z,20.31
2018-05-26T06:18:21.909Z,20.31
2018-05-26T06:19:21.997Z,20.33
2018-05-26T06:20:21.978Z,20.31
2018-05-26T06:21:21.912Z,20.32
2018-05-26T06:22:21.941Z,20.32
2018-05-26T06:23:22.428Z,20.31
2018-05-26T06:24:21.795Z,20.33
2018-05-26T06:25:21.824Z,20.32
2018-05-26T06:26:21.958Z,20.31
2018-05-26T06:27:21.916Z,20.31
2018-05-26T06:28:22.048Z,20.32
2018-05-26T06:29:22.050Z,20.31
2018-05-26T06:30:22.051Z,20.32
2018-05-26T06:31:21.849Z,20.32
2018-05-26T06:32:21.952Z,20.31
2018-05-26T06:33:21.756Z,20.31
2018-05-26T06:34:22.006Z,20.33
2018-05-26T06:35:21.889Z,20.31
2018-05-26T06:36:22.010Z,20.32
2018-05-26T06:37:22.083Z,20.32
2018-05-26T06:38:22.319Z,20.31
2018-05-26T06:39:21.915Z,20.31
2018-05-26T06:40:21.934Z,20.32
2018-05-26T06:41:22.063Z,20.31
2018-05-26T06:42:21.842Z,20.32
2018-05-26T06:43:21.934Z,20.32
2018-05-26T06:44:22.015Z,20.32
2018-05-26T06:45:23.899Z,20.31
2018-05-26T06:46:21.951Z,20.31
2018-05-26T06:47:22.176Z,20.31
2018-05-26T06:48:22.197Z,20.32
2018-05-26T06:49:22.010Z,20.32
2018-05-26T06:50:21.969Z,20.31
2018-05-26T06:51:21.918Z,20.32
2018-05-26T06:52:22.705Z,20.31
2018-05-26T06:53:21.849Z,20.31
2018-05-26T06:54:21.935Z,20.31
2018-05-26T06:55:21.826Z,20.32
2018-05-26T06:56:22.035Z,20.31
2018-05-26T06:57:21.921Z,20.32
2018-05-26T06:58:21.984Z,20.32
2018-05-26T06:59:22.232Z,20.31
2018-05-26T07:00:21.867Z,20.32
2018-05-26T07:01:21.831Z,20.32
2018-05-26T07:02:21.863Z,20.31
2018-05-26T07:03:21.859Z,20.32
2018-05-26T07:04:21.827Z,20.33
2018-05-26T07:05:21.944Z,20.3
2018-05-26T07:06:22.066Z,20.31
2018-05-26T07:07:21.886Z,20.32
2018-05-26T07:08:22.133Z,20.31
2018-05-26T07:09:21.824Z,20.31
2018-05-26T07:10:21.737Z,20.32
2018-05-26T07:11:21.997Z,20.32
2018-05-26T07:12:21.940Z,20.31
2018-05-26T07:13:21.825Z,20.31
2018-05-26T07:14:21.795Z,20.3
2018-05-26T07:15:21.942Z,20.31
2018-05-26T07:16:21.929Z,20.32
2018-05-26T07:17:21.909Z,20.32
2018-05-26T07:18:22.026Z,20.32
2018-05-26T07:19:22.160Z,20.31
2018-05-26T07:20:21.937Z,20.31
2018-05-26T07:21:21.950Z,20.31
2018-05-26T07:22:22.109Z,20.31
2018-05-26T07:23:22.023Z,20.31
2018-05-26T07:24:22.139Z,20.32
2018-05-26T07:25:21.902Z,20.32
2018-05-26T07:26:21.910Z,20.31
2018-05-26T07:27:21.861Z,20.31
2018-05-26T07:28:21.957Z,20.32
2018-05-26T07:29:22.045Z,20.31
2018-05-26T07:30:22.192Z,20.31
2018-05-26T07:31:22.002Z,20.32
2018-05-26T07:32:22.020Z,20.31
2018-05-26T07:33:21.969Z,20.32
2018-05-26T07:34:22.198Z,20.32
2018-05-26T07:35:22.146Z,20.31
2018-05-26T07:36:21.849Z,20.32
2018-05-26T07:37:22.055Z,20.33
2018-05-26T07:38:22.232Z,20.32
2018-05-26T07:39:21.808Z,20.32
2018-05-26T07:40:22.233Z,20.32
2018-05-26T07:41:21.848Z,20.32
2018-05-26T07:42:22.042Z,20.32
2018-05-26T07:43:21.919Z,20.32
2018-05-26T07:44:22.016Z,20.32
2018-05-26T07:45:22.124Z,20.31
2018-05-26T07:46:22.124Z,20.32
2018-05-26T07:47:22.073Z,20.31
2018-05-26T07:48:22.067Z,20.31
2018-05-26T07:49:21.877Z,20.33
2018-05-26T07:50:21.852Z,20.32
2018-05-26T07:51:21.884Z,20.32
2018-05-26T07:52:21.935Z,20.32
2018-05-26T07:53:22.035Z,20.32
2018-05-26T07:54:21.834Z,20.33
2018-05-26T07:55:22.177Z,20.32
2018-05-26T07:56:21.921Z,20.32
2018-05-26T07:57:21.918Z,20.32
2018-05-26T07:58:22.028Z,20.32
2018-05-26T07:59:22.035Z,20.31
2018-05-26T08:00:22.090Z,20.31
2018-05-26T08:01:22.031Z,20.33
2018-05-26T08:02:21.822Z,20.32
2018-05-26T08:03:21.813Z,20.32
2018-05-26T08:04:21.936Z,20.33
2018-05-26T08:05:22.003Z,20.32
2018-05-26T08:06:22.121Z,20.32
2018-05-26T08:07:21.934Z,20.32
2018-05-26T08:08:21.809Z,20.33
2018-05-26T08:09:21.838Z,20.32
2018-05-26T08:10:21.919Z,20.33
2018-05-26T08:11:21.809Z,20.32
2018-05-26T08:12:21.815Z,20.32
2018-05-26T08:13:21.987Z,20.32
2018-05-26T08:14:21.890Z,20.32
2018-05-26T08:15:22.025Z,20.33
2018-05-26T08:16:21.813Z,20.32
2018-05-26T08:17:22.121Z,20.32
2018-05-26T08:18:21.881Z,20.32
2018-05-26T08:19:22.001Z,20.32
2018-05-26T08:20:21.914Z,20.31
2018-05-26T08:21:21.889Z,20.31
2018-05-26T08:22:21.882Z,20.32
2018-05-26T08:23:21.896Z,20.31
2018-05-26T08:24:22.071Z,20.32
2018-05-26T08:25:21.816Z,20.33
2018-05-26T08:26:22.025Z,20.32
2018-05-26T08:27:22.047Z,20.32
2018-05-26T08:28:21.879Z,20.33
2018-05-26T08:29:21.998Z,20.32
2018-05-26T08:30:21.802Z,20.32
2018-05-26T08:31:22.055Z,20.32
2018-05-26T08:32:22.020Z,20.32
2018-05-26T08:33:22.029Z,20.33
2018-05-26T08:34:21.804Z,20.33
2018-05-26T08:35:21.965Z,20.32
2018-05-26T08:36:21.898Z,20.32
2018-05-26T08:37:22.288Z,20.33
2018-05-26T08:38:22.051Z,20.32
2018-05-26T08:39:21.818Z,20.3
2018-05-26T08:40:21.856Z,20.31
2018-05-26T08:41:21.980Z,20.34
2018-05-26T08:42:21.997Z,20.38
2018-05-26T08:43:22.001Z,20.38
2018-05-26T08:44:21.861Z,20.39
2018-05-26T08:45:22.640Z,20.4
2018-05-26T08:46:21.964Z,20.41
2018-05-26T08:47:21.974Z,20.43
2018-05-26T08:48:21.951Z,20.43
2018-05-26T08:49:21.895Z,20.45
2018-05-26T08:50:22.038Z,20.45
2018-05-26T08:51:24.939Z,20.46
2018-05-26T08:52:22.283Z,20.48
2018-05-26T08:53:24.438Z,20.48
2018-05-26T08:54:24.797Z,20.46
2018-05-26T08:55:22.277Z,20.48
2018-05-26T08:56:22.295Z,20.48
2018-05-26T08:57:24.875Z,20.49
2018-05-26T08:58:21.984Z,20.49
2018-05-26T08:59:21.886Z,20.49
2018-05-26T09:00:22.405Z,20.49
2018-05-26T09:01:21.752Z,20.48
2018-05-26T09:02:22.438Z,20.48
2018-05-26T09:03:21.938Z,20.49
2018-05-26T09:04:22.621Z,20.49
2018-05-26T09:05:22.286Z,20.48
2018-05-26T09:06:22.359Z,20.49
2018-05-26T09:07:21.982Z,20.48
2018-05-26T09:08:21.858Z,20.48
2018-05-26T09:09:21.943Z,20.48
2018-05-26T09:10:22.338Z,20.48
2018-05-26T09:11:22.285Z,20.49
2018-05-26T09:12:21.858Z,20.48
2018-05-26T09:13:21.982Z,20.48
2018-05-26T09:14:21.860Z,20.47
2018-05-26T09:15:21.882Z,20.48
2018-05-26T09:16:22.009Z,20.48
2018-05-26T09:17:21.838Z,20.48
2018-05-26T09:18:22.040Z,20.48
2018-05-26T09:19:21.924Z,20.48
2018-05-26T09:20:21.783Z,20.47
2018-05-26T09:21:24.852Z,20.48
2018-05-26T09:22:21.973Z,20.47
2018-05-26T09:23:21.878Z,20.47
2018-05-26T09:24:21.885Z,20.49
2018-05-26T09:25:21.928Z,20.47
2018-05-26T09:26:21.744Z,20.45
2018-05-26T09:27:21.906Z,20.45
2018-05-26T09:28:22.295Z,20.46
2018-05-26T09:29:21.854Z,20.45
2018-05-26T09:30:21.877Z,20.45
2018-05-26T09:31:21.977Z,20.45
2018-05-26T09:32:22.291Z,20.44
2018-05-26T09:33:21.833Z,20.45
2018-05-26T09:34:21.810Z,20.45
2018-05-26T09:35:21.786Z,20.44
2018-05-26T09:36:22.007Z,20.45
2018-05-26T09:37:21.844Z,20.44
2018-05-26T09:38:21.886Z,20.43
2018-05-26T09:39:21.942Z,20.43
2018-05-26T09:40:22.020Z,20.44
2018-05-26T09:41:21.902Z,20.42
2018-05-26T09:42:21.985Z,20.44
2018-05-26T09:43:21.867Z,20.43
2018-05-26T09:44:22.338Z,20.43
2018-05-26T09:45:21.983Z,20.42
2018-05-26T09:46:21.817Z,20.43
2018-05-26T09:47:21.847Z,20.42
2018-05-26T09:48:21.954Z,20.42
2018-05-26T09:49:21.792Z,20.42
2018-05-26T09:50:21.911Z,20.42
2018-05-26T09:51:21.743Z,20.42
2018-05-26T09:52:22.217Z,20.41
2018-05-26T09:53:21.701Z,20.41
2018-05-26T09:54:21.817Z,20.41
2018-05-26T09:55:22.067Z,20.42
2018-05-26T09:56:21.975Z,20.41
2018-05-26T09:57:21.982Z,20.42
2018-05-26T09:58:21.853Z,20.42
2018-05-26T09:59:21.970Z,20.41
2018-05-26T10:00:22.207Z,20.42
2018-05-26T10:01:21.782Z,20.42
2018-05-26T10:02:21.797Z,20.4
2018-05-26T10:03:21.985Z,20.41
2018-05-26T10:04:22.285Z,20.41
2018-05-26T10:05:21.938Z,20.4
2018-05-26T10:06:21.900Z,20.41
2018-05-26T10:07:21.979Z,20.41
2018-05-26T10:08:21.796Z,20.4
2018-05-26T10:09:22.227Z,20.41
2018-05-26T10:10:21.800Z,20.41
2018-05-26T10:11:21.833Z,20.4
2018-05-26T10:12:21.932Z,20.4
2018-05-26T10:13:21.975Z,20.4
2018-05-26T10:14:21.841Z,20.4
2018-05-26T10:15:22.052Z,20.39
2018-05-26T10:16:21.955Z,20.39
2018-05-26T10:17:21.889Z,20.41
2018-05-26T10:18:21.965Z,20.41
2018-05-26T10:19:21.926Z,20.43
2018-05-26T10:20:21.845Z,20.45
2018-05-26T10:21:22.001Z,20.46
2018-05-26T10:22:21.884Z,20.47
2018-05-26T10:23:21.820Z,20.47
2018-05-26T10:24:21.977Z,20.49
2018-05-26T10:25:22.134Z,20.5
2018-05-26T10:26:22.075Z,20.5
2018-05-26T10:27:21.847Z,20.52
2018-05-26T10:28:21.968Z,20.52
2018-05-26T10:29:21.803Z,20.5
2018-05-26T10:30:21.968Z,20.52
2018-05-26T10:31:21.915Z,20.53
2018-05-26T10:32:21.933Z,20.53
2018-05-26T10:33:21.996Z,20.53
2018-05-26T10:34:22.071Z,20.54
2018-05-26T10:35:21.881Z,20.55
2018-05-26T10:36:21.787Z,20.55
2018-05-26T10:37:21.799Z,20.56
2018-05-26T10:38:21.902Z,20.57
2018-05-26T10:39:22.111Z,20.58
2018-05-26T10:40:22.099Z,20.59
2018-05-26T10:41:22.021Z,20.59
2018-05-26T10:42:22.095Z,20.59
2018-05-26T10:43:22.056Z,20.61
2018-05-26T10:44:21.995Z,20.61
2018-05-26T10:45:22.488Z,20.62
2018-05-26T10:46:21.936Z,20.62
2018-05-26T10:47:21.807Z,20.61
2018-05-26T10:48:21.809Z,20.62
2018-05-26T10:49:21.893Z,20.64
2018-05-26T10:50:21.903Z,20.66
2018-05-26T10:51:21.923Z,20.66
2018-05-26T10:52:21.837Z,20.69
2018-05-26T10:53:21.958Z,20.69
2018-05-26T10:54:21.804Z,20.69
2018-05-26T10:55:21.791Z,20.71
2018-05-26T10:56:21.757Z,20.71
2018-05-26T10:57:22.072Z,20.72
2018-05-26T10:58:21.958Z,20.74
2018-05-26T10:59:21.937Z,20.73
2018-05-26T11:00:21.969Z,20.74
2018-05-26T11:01:21.873Z,20.75
2018-05-26T11:02:21.868Z,20.76
2018-05-26T11:03:21.846Z,20.77
2018-05-26T11:04:22.049Z,20.79
2018-05-26T11:05:21.681Z,20.79
2018-05-26T11:06:21.888Z,20.79
2018-05-26T11:07:21.927Z,20.8
2018-05-26T11:08:21.995Z,20.8
2018-05-26T11:09:21.945Z,20.8
2018-05-26T11:10:21.815Z,20.79
2018-05-26T11:11:21.764Z,20.77
2018-05-26T11:12:22.015Z,20.78
2018-05-26T11:13:21.922Z,20.76
2018-05-26T11:14:21.785Z,20.76
2018-05-26T11:15:22.000Z,20.78
2018-05-26T11:16:21.749Z,20.77
2018-05-26T11:17:21.960Z,20.76
2018-05-26T11:18:21.906Z,20.74
2018-05-26T11:19:21.988Z,20.75
2018-05-26T11:20:22.013Z,20.74
2018-05-26T11:21:21.926Z,20.74
2018-05-26T11:22:21.874Z,20.74
2018-05-26T11:23:21.753Z,20.72
2018-05-26T11:24:22.029Z,20.74
2018-05-26T11:25:21.779Z,20.74
2018-05-26T11:26:22.016Z,20.73
2018-05-26T11:27:21.957Z,20.73
2018-05-26T11:28:21.913Z,20.74
2018-05-26T11:29:21.988Z,20.74
2018-05-26T11:30:21.802Z,20.74
2018-05-26T11:31:21.786Z,20.73
2018-05-26T11:32:21.867Z,20.72
2018-05-26T11:33:21.924Z,20.73
2018-05-26T11:34:21.841Z,20.72
2018-05-26T11:35:21.994Z,20.72
2018-05-26T11:36:22.020Z,20.73
2018-05-26T11:37:21.970Z,20.72
2018-05-26T11:38:21.880Z,20.71
2018-05-26T11:39:21.828Z,20.71
2018-05-26T11:40:21.865Z,20.7
2018-05-26T11:41:21.906Z,20.7
2018-05-26T11:42:21.792Z,20.7
2018-05-26T11:43:21.974Z,20.7
2018-05-26T11:44:21.846Z,20.68
2018-05-26T11:45:21.860Z,20.69
2018-05-26T11:46:21.836Z,20.69
2018-05-26T11:47:22.018Z,20.68
2018-05-26T11:48:21.894Z,20.69
2018-05-26T11:49:21.828Z,20.68
2018-05-26T11:50:21.743Z,20.67
2018-05-26T11:51:22.244Z,20.68
2018-05-26T11:52:21.828Z,20.67
2018-05-26T11:53:21.844Z,20.67
2018-05-26T11:54:22.032Z,20.66
2018-05-26T11:55:21.762Z,20.67
2018-05-26T11:56:22.007Z,20.65
2018-05-26T11:57:21.984Z,20.66
2018-05-26T11:58:21.730Z,20.65
2018-05-26T11:59:21.842Z,20.64
2018-05-26T12:00:21.889Z,20.65
2018-05-26T12:01:21.854Z,20.65
2018-05-26T12:02:21.970Z,20.63
2018-05-26T12:03:21.911Z,20.63
2018-05-26T12:04:21.986Z,20.64
2018-05-26T12:05:21.679Z,20.62
2018-05-26T12:06:21.850Z,20.63
2018-05-26T12:07:21.856Z,20.63
2018-05-26T12:08:21.785Z,20.62
2018-05-26T12:09:21.805Z,20.62
2018-05-26T12:10:21.946Z,20.62
2018-05-26T12:11:22.039Z,20.62
2018-05-26T12:12:22.222Z,20.61
2018-05-26T12:13:21.882Z,20.61
2018-05-26T12:14:21.902Z,20.6
2018-05-26T12:15:21.805Z,20.6
2018-05-26T12:16:22.049Z,20.61
2018-05-26T12:17:21.837Z,20.59
2018-05-26T12:18:21.901Z,20.6
2018-05-26T12:19:21.754Z,20.6
2018-05-26T12:20:21.928Z,20.59
2018-05-26T12:21:21.893Z,20.6
2018-05-26T12:22:21.865Z,20.59
2018-05-26T12:23:21.877Z,20.58
2018-05-26T12:24:21.933Z,20.59
2018-05-26T12:25:21.999Z,20.59
2018-05-26T12:26:21.739Z,20.58
2018-05-26T12:27:21.870Z,20.58
2018-05-26T12:28:21.964Z,20.59
2018-05-26T12:29:21.826Z,20.58
2018-05-26T12:30:21.828Z,20.59
2018-05-26T12:31:21.973Z,20.59
2018-05-26T12:32:21.837Z,20.58
2018-05-26T12:33:21.783Z,20.58
2018-05-26T12:34:21.856Z,20.59
2018-05-26T12:35:21.806Z,20.57
2018-05-26T12:36:21.904Z,20.58
2018-05-26T12:37:21.828Z,20.57
2018-05-26T12:38:22.056Z,20.56
2018-05-26T12:39:21.820Z,20.57
2018-05-26T12:40:21.945Z,20.57
2018-05-26T12:41:22.090Z,20.57
2018-05-26T12:42:21.803Z,20.57
2018-05-26T12:43:22.040Z,20.57
2018-05-26T12:44:21.746Z,20.57
2018-05-26T12:45:21.889Z,20.57
2018-05-26T12:46:21.653Z,20.57
2018-05-26T12:47:21.887Z,20.56
2018-05-26T12:48:22.008Z,20.57
2018-05-26T12:49:21.815Z,20.56
2018-05-26T12:50:22.008Z,20.56
2018-05-26T12:51:21.734Z,20.55
2018-05-26T12:52:21.970Z,20.56
2018-05-26T12:53:21.847Z,20.55
2018-05-26T12:54:22.265Z,20.55
2018-05-26T12:55:21.898Z,20.56